Destinations Francisco de Sá Carneiro Airport

Francisco de Sá Carneiro Airport (LPPR / OPO)

Flights to Francisco de Sá Carneiro Airport

Flight number From ETE Dispatch
SPY-2222 EGFF Cardiff International Airport 02:10
SPY-404 EHGG Groningen Airport Eelde 03:10

Flights from Francisco de Sá Carneiro Airport

Flight number To ETE Dispatch
SPY-2223 EGFF Cardiff International Airport 02:10
SPY-405 EHGG Groningen Airport Eelde
About

Francisco de Sá Carneiro Airport facts

Francisco de Sá Carneiro Airport is located in Porto at an elevation of 69.5 meters or 228 feet.

Currently, Speedy Airlines serves 4 flights to and from Francisco de Sá Carneiro Airport.

Detailed airport info

Route map

Weather

Current weather

METAR

METAR

Metar data retrieved Sunday, 21 July 2024 at 18:55 UTC

LPPR 211830Z 34013KT CAVOK 21/15 Q1016
Wind Temperature
13 kt 21c